Time,TemperatureF,DewpointF,PressureIn,WindDirection,WindDirectionDegrees,WindSpeedMPH,WindSpeedGustMPH,Humidity,HourlyPrecipIn,Conditions,Clouds,dailyrainin,SolarRadiationWatts/m^2,SoftwareType,DateUTC
2013-03-24 00:00:00,29.9,23.6,30.03,WSW,251,0.1,3.5,77,0.00,BKN,OVC,0.00,0.0,WeatherDisplay:10.37,2013-03-24 04:00:00,
2013-03-24 00:05:00,29.9,23.6,30.03,WSW,251,0.6,3.5,77,0.00,BKN,OVC,0.00,0.0,WeatherDisplay:10.37,2013-03-24 04:05:00,
2013-03-24 00:10:00,30.0,23.7,30.03,WSW,251,1.1,2.3,77,0.00,BKN,OVC,0.00,0.0,WeatherDisplay:10.37,2013-03-24 04:10:00,
2013-03-24 00:16:00,30.1,23.8,30.04,West,277,2.2,10.4,77,0.00,BKN,OVC,0.00,0.0,WeatherDisplay:10.37,2013-03-24 04:16:00,
2013-03-24 00:21:00,30.2,23.5,30.03,West,277,0.0,1.2,76,0.00,SCT,OVC,0.00,0.0,WeatherDisplay:10.37,2013-03-24 04:21:00,
2013-03-24 00:26:00,30.2,23.5,30.03,West,277,0.7,3.5,76,0.00,SCT,OVC,0.00,0.0,WeatherDisplay:10.37,2013-03-24 04:26:00,
2013-03-24 00:31:00,30.2,23.5,30.03,West,277,0.7,2.3,76,0.00,SCT,OVC,0.00,0.0,WeatherDisplay:10.37,2013-03-24 04:31:00,
2013-03-24 00:36:00,30.1,23.4,30.03,West,277,0.0,1.2,76,0.00,SCT,OVC,0.00,0.0,WeatherDisplay:10.37,2013-03-24 04:36:00,
2013-03-24 00:41:00,30.0,23.0,30.03,West,277,1.4,2.3,75,0.00,SCT,OVC,0.00,0.0,WeatherDisplay:10.37,2013-03-24 04:41:00,
2013-03-24 00:46:00,29.8,22.8,30.03,West,277,0.2,2.3,75,0.00,SCT,OVC,0.00,0.0,WeatherDisplay:10.37,2013-03-24 04:46:00,
2013-03-24 00:51:00,29.5,22.6,30.03,West,277,0.0,2.3,75,0.00,SCT,OVC,0.00,0.0,WeatherDisplay:10.37,2013-03-24 04:51:00,
2013-03-24 00:56:00,29.1,22.5,30.02,West,277,0.0,1.2,76,0.00,SCT,OVC,0.00,0.0,WeatherDisplay:10.37,2013-03-24 04:56:00,
2013-03-24 01:02:00,28.6,22.0,30.02,West,277,0.0,0.0,76,0.00,SCT,OVC,0.00,0.0,WeatherDisplay:10.37,2013-03-24 05:02:00,
2013-03-24 01:07:00,28.3,22.0,30.02,West,277,0.0,0.0,77,0.00,SCT,OVC,0.00,0.0,WeatherDisplay:10.37,2013-03-24 05:07:00,
2013-03-24 01:12:00,28.1,22.1,30.02,West,277,0.5,1.2,78,0.00,SCT,OVC,0.00,0.0,WeatherDisplay:10.37,2013-03-24 05:12:00,
2013-03-24 01:17:00,27.9,21.9,30.02,West,277,0.0,0.0,78,0.00,SCT,OVC,0.00,0.0,WeatherDisplay:10.37,2013-03-24 05:17:00,
2013-03-24 01:22:00,27.7,21.7,30.02,West,277,0.0,0.0,78,0.00,SCT,OVC,0.00,0.0,WeatherDisplay:10.37,2013-03-24 05:22:00,
2013-03-24 01:27:00,27.5,21.8,30.01,West,277,0.0,0.0,79,0.00,SCT,OVC,0.00,0.0,WeatherDisplay:10.37,2013-03-24 05:27:00,
2013-03-24 01:32:00,27.4,21.7,30.02,West,277,0.4,1.2,79,0.00,SCT,OVC,0.00,0.0,WeatherDisplay:10.37,2013-03-24 05:32:00,
2013-03-24 01:37:00,27.3,21.6,30.01,West,277,0.0,0.0,79,0.00,SCT,OVC,0.00,0.0,WeatherDisplay:10.37,2013-03-24 05:37:00,
2013-03-24 01:43:00,27.2,21.8,30.00,West,277,0.0,0.0,80,0.00,SCT,OVC,0.00,0.0,WeatherDisplay:10.37,2013-03-24 05:43:00,
2013-03-24 01:48:00,27.1,21.7,30.00,West,277,0.0,0.0,80,0.00,SCT,OVC,0.00,0.0,WeatherDisplay:10.37,2013-03-24 05:48:00,
2013-03-24 01:53:00,27.0,21.7,30.00,West,277,0.9,2.3,80,0.00,SCT,OVC,0.00,0.0,WeatherDisplay:10.37,2013-03-24 05:53:00,
2013-03-24 01:58:00,27.0,21.9,30.00,West,277,0.0,1.2,81,0.00,SCT,OVC,0.00,0.0,WeatherDisplay:10.37,2013-03-24 05:58:00,
2013-03-24 02:03:00,27.0,21.9,30.00,West,277,0.3,2.3,81,0.00,SCT,OVC,0.00,0.0,WeatherDisplay:10.37,2013-03-24 06:03:00,
2013-03-24 02:08:00,27.0,21.9,30.00,West,277,0.1,1.2,81,0.00,SCT,OVC,0.00,0.0,WeatherDisplay:10.37,2013-03-24 06:08:00,
2013-03-24 02:13:00,27.0,21.9,29.99,West,277,0.0,1.2,81,0.00,SCT,OVC,0.00,0.0,WeatherDisplay:10.37,2013-03-24 06:13:00,
2013-03-24 02:18:00,26.9,21.8,29.99,West,277,0.0,0.0,81,0.00,SCT,OVC,0.00,0.0,WeatherDisplay:10.37,2013-03-24 06:18:00,
2013-03-24 02:23:00,26.8,21.8,29.99,West,277,0.0,0.0,81,0.00,FEW,OVC,0.00,0.0,WeatherDisplay:10.37,2013-03-24 06:23:00,
2013-03-24 02:28:00,26.7,21.4,29.99,West,277,0.0,0.0,80,0.00,FEW,OVC,0.00,0.0,WeatherDisplay:10.37,2013-03-24 06:28:00,
2013-03-24 02:33:00,26.5,21.2,29.98,West,277,0.0,0.0,80,0.00,FEW,OVC,0.00,0.0,WeatherDisplay:10.37,2013-03-24 06:33:00,
2013-03-24 02:38:00,26.3,21.3,29.98,West,277,0.0,0.0,81,0.00,FEW,OVC,0.00,0.0,WeatherDisplay:10.37,2013-03-24 06:38:00,
2013-03-24 02:43:00,26.1,21.1,29.98,West,277,0.0,0.0,81,0.00,FEW,OVC,0.00,0.0,WeatherDisplay:10.37,2013-03-24 06:43:00,
2013-03-24 02:48:00,25.9,20.9,29.97,West,277,0.0,0.0,81,0.00,FEW,OVC,0.00,0.0,WeatherDisplay:10.37,2013-03-24 06:48:00,
2013-03-24 02:53:00,25.7,20.7,29.97,West,277,0.0,0.0,81,0.00,FEW,OVC,0.00,0.0,WeatherDisplay:10.37,2013-03-24 06:53:00,
2013-03-24 02:58:00,25.5,20.5,29.98,West,277,0.0,0.0,81,0.00,FEW,OVC,0.00,0.0,WeatherDisplay:10.37,2013-03-24 06:58:00,
2013-03-24 03:03:00,25.2,20.5,29.98,West,277,0.0,0.0,82,0.00,FEW,OVC,0.00,0.0,WeatherDisplay:10.37,2013-03-24 07:03:00,
2013-03-24 03:08:00,25.1,20.4,29.98,West,277,0.3,1.2,82,0.00,FEW,OVC,0.00,0.0,WeatherDisplay:10.37,2013-03-24 07:08:00,
2013-03-24 03:13:00,24.9,20.2,29.98,West,277,0.0,1.2,82,0.00,FEW,OVC,0.00,0.0,WeatherDisplay:10.37,2013-03-24 07:13:00,
2013-03-24 03:18:00,24.8,20.4,29.99,West,277,0.3,2.3,83,0.00,FEW,OVC,0.00,0.0,WeatherDisplay:10.37,2013-03-24 07:18:00,
2013-03-24 03:23:00,24.6,20.2,29.98,West,277,0.0,1.2,83,0.00,FEW,OVC,0.00,0.0,WeatherDisplay:10.37,2013-03-24 07:23:00,
2013-03-24 03:28:00,24.5,20.1,29.97,West,277,0.0,0.0,83,0.00,FEW,OVC,0.00,0.0,WeatherDisplay:10.37,2013-03-24 07:28:00,
2013-03-24 03:33:00,24.3,19.9,29.97,West,277,0.3,1.2,83,0.00,FEW,OVC,0.00,0.0,WeatherDisplay:10.37,2013-03-24 07:33:00,
2013-03-24 03:38:00,23.8,19.4,29.97,West,277,0.0,0.0,83,0.00,FEW,OVC,0.00,0.0,WeatherDisplay:10.37,2013-03-24 07:38:00,
2013-03-24 03:43:00,23.5,19.1,29.96,West,277,0.0,0.0,83,0.00,FEW,OVC,0.00,0.0,WeatherDisplay:10.37,2013-03-24 07:43:00,
2013-03-24 03:48:00,23.4,19.0,29.96,West,277,0.0,0.0,83,0.00,FEW,OVC,0.00,0.0,WeatherDisplay:10.37,2013-03-24 07:48:00,
2013-03-24 03:53:00,23.2,18.8,29.97,West,277,0.0,0.0,83,0.00,FEW,OVC,0.00,0.0,WeatherDisplay:10.37,2013-03-24 07:53:00,
2013-03-24 03:58:00,23.0,18.9,29.98,West,277,0.0,0.0,84,0.00,FEW,OVC,0.00,0.0,WeatherDisplay:10.37,2013-03-24 07:58:00,
2013-03-24 04:03:00,22.9,18.8,29.98,West,277,0.0,0.0,84,0.00,FEW,OVC,0.00,0.0,WeatherDisplay:10.37,2013-03-24 08:03:00,
2013-03-24 04:08:00,22.7,18.6,29.99,West,277,0.8,2.3,84,0.00,FEW,OVC,0.00,0.0,WeatherDisplay:10.37,2013-03-24 08:08:00,
2013-03-24 04:13:00,22.6,18.5,29.99,West,277,0.0,2.3,84,0.00,FEW,OVC,0.00,0.0,WeatherDisplay:10.37,2013-03-24 08:13:00,
2013-03-24 04:18:00,22.5,18.4,29.98,West,277,0.2,1.2,84,0.00,FEW,OVC,0.00,0.0,WeatherDisplay:10.37,2013-03-24 08:18:00,
2013-03-24 04:24:00,22.3,18.2,29.98,West,277,0.0,0.0,84,0.00,FEW,OVC,0.00,0.0,WeatherDisplay:10.37,2013-03-24 08:24:00,
2013-03-24 04:29:00,22.2,18.1,29.98,West,277,0.0,0.0,84,0.00,FEW,OVC,0.00,0.0,WeatherDisplay:10.37,2013-03-24 08:29:00,
2013-03-24 04:34:00,22.1,18.0,29.98,West,277,0.0,1.2,84,0.00,FEW,OVC,0.00,0.0,WeatherDisplay:10.37,2013-03-24 08:34:00,
2013-03-24 04:39:00,21.9,18.1,29.98,West,277,0.0,0.0,85,0.00,FEW,OVC,0.00,0.0,WeatherDisplay:10.37,2013-03-24 08:39:00,
2013-03-24 04:44:00,21.8,18.0,29.98,West,277,0.6,1.2,85,0.00,FEW,OVC,0.00,0.0,WeatherDisplay:10.37,2013-03-24 08:44:00,
2013-03-24 04:49:00,21.7,17.9,29.98,West,277,0.0,0.0,85,0.00,FEW,OVC,0.00,0.0,WeatherDisplay:10.37,2013-03-24 08:49:00,
2013-03-24 04:54:00,21.5,17.7,29.98,West,277,0.0,0.0,85,0.00,FEW,OVC,0.00,0.0,WeatherDisplay:10.37,2013-03-24 08:54:00,
2013-03-24 04:59:00,21.3,17.5,29.99,West,277,0.0,0.0,85,0.00,FEW,OVC,0.00,0.0,WeatherDisplay:10.37,2013-03-24 08:59:00,
2013-03-24 05:04:00,21.1,17.3,29.98,West,277,0.0,0.0,85,0.00,FEW,OVC,0.00,0.0,WeatherDisplay:10.37,2013-03-24 09:04:00,
2013-03-24 05:09:00,20.8,17.0,29.98,West,277,0.0,0.0,85,0.00,FEW,OVC,0.00,0.0,WeatherDisplay:10.37,2013-03-24 09:09:00,
2013-03-24 05:14:00,20.6,16.8,29.98,West,277,0.0,0.0,85,0.00,FEW,OVC,0.00,0.0,WeatherDisplay:10.37,2013-03-24 09:14:00,
2013-03-24 05:19:00,20.4,16.6,29.98,West,277,0.0,0.0,85,0.00,FEW,OVC,0.00,0.0,WeatherDisplay:10.37,2013-03-24 09:19:00,
2013-03-24 05:24:00,20.2,16.4,29.98,West,277,0.0,0.0,85,0.00,FEW,OVC,0.00,0.0,WeatherDisplay:10.37,2013-03-24 09:24:00,
2013-03-24 05:29:00,20.0,16.2,29.98,West,277,0.0,0.0,85,0.00,FEW,OVC,0.00,0.0,WeatherDisplay:10.37,2013-03-24 09:29:00,
2013-03-24 05:34:00,19.9,16.1,29.98,West,277,0.0,0.0,85,0.00,FEW,OVC,0.00,0.0,WeatherDisplay:10.37,2013-03-24 09:34:00,
2013-03-24 05:39:00,19.6,15.8,29.98,West,277,1.5,2.3,85,0.00,FEW,OVC,0.00,0.0,WeatherDisplay:10.37,2013-03-24 09:39:00,
2013-03-24 05:44:00,19.4,15.6,29.99,West,277,0.4,2.3,85,0.00,FEW,OVC,0.00,0.0,WeatherDisplay:10.37,2013-03-24 09:44:00,
2013-03-24 05:49:00,19.2,15.4,29.99,West,277,1.1,2.0,85,0.00,FEW,OVC,0.00,0.0,WeatherDisplay:10.37,2013-03-24 09:49:00,
2013-03-24 05:54:00,19.1,15.3,29.99,West,277,0.0,0.0,85,0.00,FEW,OVC,0.00,0.0,WeatherDisplay:10.37,2013-03-24 09:54:00,
2013-03-24 05:59:00,18.9,15.1,29.99,West,277,0.0,0.0,85,0.00,FEW,OVC,0.00,0.0,WeatherDisplay:10.37,2013-03-24 09:59:00,
2013-03-24 06:04:00,18.8,15.0,29.99,West,277,0.0,0.0,85,0.00,FEW,OVC,0.00,0.0,WeatherDisplay:10.37,2013-03-24 10:04:00,
2013-03-24 06:09:00,18.6,14.8,29.99,West,277,0.0,0.0,85,0.00,FEW,OVC,0.00,0.0,WeatherDisplay:10.37,2013-03-24 10:09:00,
2013-03-24 06:14:00,18.4,14.6,29.99,West,277,0.0,0.0,85,0.00,FEW,OVC,0.00,0.0,WeatherDisplay:10.37,2013-03-24 10:14:00,
2013-03-24 06:19:00,18.2,14.4,29.99,West,277,0.0,1.2,85,0.00,FEW,OVC,0.00,0.0,WeatherDisplay:10.37,2013-03-24 10:19:00,
2013-03-24 06:24:00,18.1,14.4,29.99,West,277,0.0,0.0,85,0.00,SCT,OVC,0.00,0.0,WeatherDisplay:10.37,2013-03-24 10:24:00,
2013-03-24 06:29:00,18.0,14.5,29.99,West,277,0.3,1.2,86,0.00,SCT,OVC,0.00,0.0,WeatherDisplay:10.37,2013-03-24 10:29:00,
2013-03-24 06:34:00,18.0,14.5,29.99,West,277,0.0,2.3,86,0.00,SCT,OVC,0.00,0.0,WeatherDisplay:10.37,2013-03-24 10:34:00,
2013-03-24 06:39:00,18.2,15.0,29.99,West,277,0.0,0.0,87,0.00,SCT,OVC,0.00,0.0,WeatherDisplay:10.37,2013-03-24 10:39:00,
2013-03-24 06:44:00,18.4,15.2,29.99,West,277,0.0,0.0,87,0.00,SCT,OVC,0.00,0.0,WeatherDisplay:10.37,2013-03-24 10:44:00,
2013-03-24 06:49:00,18.4,15.2,29.99,West,277,0.0,1.0,87,0.00,SCT,OVC,0.00,0.0,WeatherDisplay:10.37,2013-03-24 10:49:00,
2013-03-24 06:54:00,18.3,14.8,29.99,West,277,0.9,2.3,86,0.00,SCT,OVC,0.00,0.0,WeatherDisplay:10.37,2013-03-24 10:54:00,
2013-03-24 06:59:00,18.2,14.7,29.99,West,277,0.0,1.2,86,0.00,SCT,OVC,0.00,0.0,WeatherDisplay:10.37,2013-03-24 10:59:00,
2013-03-24 07:04:00,18.1,14.6,29.99,West,277,0.0,0.0,86,0.00,FEW,OVC,0.00,0.0,WeatherDisplay:10.37,2013-03-24 11:04:00,
2013-03-24 07:09:00,18.0,14.5,29.99,West,277,0.3,1.2,86,0.00,FEW,OVC,0.00,5.0,WeatherDisplay:10.37,2013-03-24 11:09:00,
2013-03-24 07:14:00,17.9,14.4,29.99,West,277,0.0,0.0,86,0.00,FEW,OVC,0.00,7.0,WeatherDisplay:10.37,2013-03-24 11:14:00,
2013-03-24 07:19:00,17.8,14.3,29.99,West,277,0.0,0.0,86,0.00,FEW,OVC,0.00,11.0,WeatherDisplay:10.37,2013-03-24 11:19:00,
2013-03-24 07:24:00,17.7,14.2,29.99,West,277,0.0,0.0,86,0.00,FEW,OVC,0.00,16.0,WeatherDisplay:10.37,2013-03-24 11:24:00,
2013-03-24 07:29:00,17.6,14.1,29.99,West,277,0.0,0.0,86,0.00,FEW,OVC,0.00,23.0,WeatherDisplay:10.37,2013-03-24 11:29:00,
2013-03-24 07:34:00,17.6,14.1,29.99,West,277,0.7,3.5,86,0.00,FEW,OVC,0.00,28.0,WeatherDisplay:10.37,2013-03-24 11:34:00,
2013-03-24 07:39:00,17.9,14.7,30.00,West,277,0.2,1.2,87,0.00,FEW,OVC,0.00,37.0,WeatherDisplay:10.37,2013-03-24 11:39:00,
2013-03-24 07:44:00,18.4,15.4,30.00,West,277,0.0,1.2,88,0.00,FEW,OVC,0.00,51.0,WeatherDisplay:10.37,2013-03-24 11:44:00,
2013-03-24 07:49:00,18.9,15.9,30.00,West,277,0.4,2.3,88,0.00,FEW,OVC,0.00,63.0,WeatherDisplay:10.37,2013-03-24 11:49:00,
2013-03-24 07:54:00,19.3,16.3,30.01,West,277,0.2,2.3,88,0.00,FEW,OVC,0.00,74.0,WeatherDisplay:10.37,2013-03-24 11:54:00,
2013-03-24 07:59:00,19.9,16.9,30.01,West,277,0.0,1.2,88,0.00,FEW,OVC,0.00,86.0,WeatherDisplay:10.37,2013-03-24 11:59:00,
2013-03-24 08:04:00,21.0,18.3,30.00,West,277,0.2,1.2,89,0.00,FEW,OVC,0.00,105.0,WeatherDisplay:10.37,2013-03-24 12:04:00,
2013-03-24 08:09:00,22.0,19.3,30.00,West,277,0.0,0.0,89,0.00,FEW,OVC,0.00,127.0,WeatherDisplay:10.37,2013-03-24 12:09:00,
2013-03-24 08:14:00,22.7,19.9,30.00,West,277,0.0,0.0,89,0.00,FEW,OVC,0.00,141.0,WeatherDisplay:10.37,2013-03-24 12:14:00,
2013-03-24 08:19:00,23.2,20.4,30.00,West,277,0.5,2.0,89,0.00,FEW,OVC,0.00,156.0,WeatherDisplay:10.37,2013-03-24 12:19:00,
2013-03-24 08:24:00,24.1,21.3,29.99,West,277,0.0,0.0,89,0.00,FEW,OVC,0.00,181.0,WeatherDisplay:10.37,2013-03-24 12:24:00,
2013-03-24 08:29:00,25.1,22.3,29.99,West,277,0.0,0.0,89,0.00,FEW,OVC,0.00,199.0,WeatherDisplay:10.37,2013-03-24 12:29:00,
2013-03-24 08:34:00,25.7,22.9,29.99,West,277,0.0,2.3,89,0.00,FEW,OVC,0.00,213.0,WeatherDisplay:10.37,2013-03-24 12:34:00,
2013-03-24 08:39:00,26.4,23.6,29.99,West,277,0.5,2.0,89,0.00,FEW,OVC,0.00,221.0,WeatherDisplay:10.37,2013-03-24 12:39:00,
2013-03-24 08:44:00,27.0,24.2,29.99,West,277,0.0,0.0,89,0.00,FEW,OVC,0.00,246.0,WeatherDisplay:10.37,2013-03-24 12:44:00,
2013-03-24 08:49:00,27.6,24.5,29.99,West,277,1.5,3.5,88,0.00,FEW,OVC,0.00,260.0,WeatherDisplay:10.37,2013-03-24 12:49:00,
2013-03-24 08:54:00,27.9,24.8,29.99,West,277,0.3,2.3,88,0.00,FEW,OVC,0.00,271.0,WeatherDisplay:10.37,2013-03-24 12:54:00,
2013-03-24 09:00:00,28.4,25.0,29.98,West,277,0.4,3.5,87,0.00,FEW,OVC,0.00,294.0,WeatherDisplay:10.37,2013-03-24 13:00:00,
2013-03-24 09:05:00,28.7,25.3,29.98,West,277,1.0,2.3,87,0.00,FEW,OVC,0.00,313.0,WeatherDisplay:10.37,2013-03-24 13:05:00,
2013-03-24 09:10:00,29.1,25.4,29.98,West,277,1.1,3.0,86,0.00,FEW,OVC,0.00,355.0,WeatherDisplay:10.37,2013-03-24 13:10:00,
2013-03-24 09:15:00,29.6,25.6,29.98,West,277,0.0,2.3,85,0.00,FEW,OVC,0.00,374.0,WeatherDisplay:10.37,2013-03-24 13:15:00,
2013-03-24 09:20:00,30.2,25.9,29.99,West,277,2.2,4.0,84,0.00,FEW,OVC,0.00,396.0,WeatherDisplay:10.37,2013-03-24 13:20:00,
2013-03-24 09:25:00,30.5,26.0,29.99,West,277,0.9,2.3,83,0.00,FEW,OVC,0.00,348.0,WeatherDisplay:10.37,2013-03-24 13:25:00,
2013-03-24 09:30:00,30.6,25.8,29.98,West,277,1.7,4.6,82,0.00,FEW,OVC,0.00,403.0,WeatherDisplay:10.37,2013-03-24 13:30:00,
2013-03-24 09:35:00,30.5,25.7,29.98,West,277,2.3,5.8,82,0.00,BKN,OVC,0.00,415.0,WeatherDisplay:10.37,2013-03-24 13:35:00,
2013-03-24 09:40:00,30.6,25.8,29.98,West,277,2.7,4.0,82,0.00,BKN,OVC,0.00,450.0,WeatherDisplay:10.37,2013-03-24 13:40:00,
2013-03-24 09:45:00,31.0,25.9,29.98,West,277,2.0,5.0,81,0.00,BKN,OVC,0.00,452.0,WeatherDisplay:10.37,2013-03-24 13:45:00,
2013-03-24 09:50:00,31.2,25.7,29.98,West,277,0.3,3.5,80,0.00,BKN,OVC,0.00,429.0,WeatherDisplay:10.37,2013-03-24 13:50:00,
2013-03-24 09:55:00,31.5,25.7,29.98,West,277,0.9,3.5,79,0.00,BKN,OVC,0.00,564.0,WeatherDisplay:10.37,2013-03-24 13:55:00,
2013-03-24 10:00:00,31.6,25.8,29.98,West,277,0.0,0.0,79,0.00,BKN,OVC,0.00,274.0,WeatherDisplay:10.37,2013-03-24 14:00:00,
2013-03-24 10:05:00,32.1,26.3,29.98,West,277,2.1,5.0,79,0.00,BKN,OVC,0.00,265.0,WeatherDisplay:10.37,2013-03-24 14:05:00,
2013-03-24 10:10:00,32.1,26.0,29.98,West,278,2.7,5.0,78,0.00,BKN,OVC,0.00,269.0,WeatherDisplay:10.37,2013-03-24 14:10:00,
2013-03-24 10:15:00,32.3,25.6,29.98,WNW,282,2.4,4.0,76,0.00,BKN,OVC,0.00,550.0,WeatherDisplay:10.37,2013-03-24 14:15:00,
2013-03-24 10:20:00,32.0,24.6,29.98,WNW,288,1.9,3.5,74,0.00,BKN,OVC,0.00,204.0,WeatherDisplay:10.37,2013-03-24 14:20:00,
2013-03-24 10:25:00,31.9,24.6,29.98,WNW,289,3.3,4.6,74,0.00,BKN,OVC,0.00,246.0,WeatherDisplay:10.37,2013-03-24 14:25:00,
2013-03-24 10:30:00,32.4,25.4,29.98,WNW,289,0.7,3.0,75,0.00,BKN,OVC,0.00,668.0,WeatherDisplay:10.37,2013-03-24 14:30:00,
2013-03-24 10:35:00,32.5,25.1,29.98,WNW,289,0.4,2.3,74,0.00,BKN,OVC,0.00,309.0,WeatherDisplay:10.37,2013-03-24 14:35:00,
2013-03-24 10:40:00,32.3,24.9,29.98,WNW,289,1.0,2.3,74,0.00,BKN,OVC,0.00,292.0,WeatherDisplay:10.37,2013-03-24 14:40:00,
2013-03-24 10:45:00,33.0,25.3,29.98,WNW,287,2.3,4.6,73,0.00,BKN,OVC,0.00,267.0,WeatherDisplay:10.37,2013-03-24 14:45:00,
2013-03-24 10:50:00,32.8,24.8,29.97,WNW,287,2.4,4.0,72,0.00,BKN,OVC,0.00,204.0,WeatherDisplay:10.37,2013-03-24 14:50:00,
2013-03-24 10:55:00,32.7,24.3,29.97,WNW,287,1.1,2.3,71,0.00,BKN,OVC,0.00,221.0,WeatherDisplay:10.37,2013-03-24 14:55:00,
2013-03-24 11:00:00,32.8,24.1,29.97,WNW,287,0.5,3.5,70,0.00,BKN,OVC,0.00,237.0,WeatherDisplay:10.37,2013-03-24 15:00:00,
2013-03-24 11:05:00,32.8,24.1,29.97,WNW,287,0.0,0.0,70,0.00,BKN,OVC,0.00,241.0,WeatherDisplay:10.37,2013-03-24 15:05:00,
2013-03-24 11:10:00,32.7,21.9,29.96,WNW,287,0.9,3.5,64,0.00,BKN,OVC,0.00,290.0,WeatherDisplay:10.37,2013-03-24 15:10:00,
2013-03-24 11:15:00,33.2,22.0,29.96,WNW,287,2.0,3.5,63,0.00,BKN,OVC,0.00,664.0,WeatherDisplay:10.37,2013-03-24 15:15:00,
2013-03-24 11:20:00,33.6,21.6,29.95,WNW,287,1.3,4.0,61,0.00,BKN,OVC,0.00,747.0,WeatherDisplay:10.37,2013-03-24 15:20:00,
2013-03-24 11:25:00,33.8,23.3,29.95,WNW,288,0.0,3.5,65,0.00,BKN,OVC,0.00,381.0,WeatherDisplay:10.37,2013-03-24 15:25:00,
2013-03-24 11:30:00,34.1,21.7,29.94,WNW,293,2.7,5.0,60,0.00,BKN,OVC,0.00,417.0,WeatherDisplay:10.37,2013-03-24 15:30:00,
2013-03-24 11:35:00,34.1,22.0,29.94,WNW,300,2.5,4.6,61,0.00,BKN,OVC,0.00,392.0,WeatherDisplay:10.37,2013-03-24 15:35:00,
2013-03-24 11:40:00,34.3,22.2,29.93,WNW,302,2.9,5.0,61,0.00,BKN,OVC,0.00,387.0,WeatherDisplay:10.37,2013-03-24 15:40:00,
2013-03-24 11:45:00,34.4,21.5,29.93,NNE,15,4.2,10.4,59,0.00,BKN,OVC,0.00,357.0,WeatherDisplay:10.37,2013-03-24 15:45:00,
2013-03-24 11:50:00,34.3,21.0,29.92,NNE,18,3.7,5.0,58,0.00,BKN,OVC,0.00,429.0,WeatherDisplay:10.37,2013-03-24 15:50:00,
2013-03-24 11:55:00,34.2,20.9,29.91,NNE,15,0.3,2.3,58,0.00,BKN,OVC,0.00,445.0,WeatherDisplay:10.37,2013-03-24 15:55:00,
2013-03-24 12:00:00,34.4,20.7,29.91,NNE,18,3.8,5.0,57,0.00,BKN,OVC,0.00,612.0,WeatherDisplay:10.37,2013-03-24 16:00:00,
2013-03-24 12:05:00,34.8,20.3,29.90,NNE,18,1.0,3.5,55,0.00,BKN,OVC,0.00,619.0,WeatherDisplay:10.37,2013-03-24 16:05:00,
2013-03-24 12:10:00,35.2,21.1,29.90,ENE,75,5.5,9.2,56,0.00,BKN,OVC,0.00,666.0,WeatherDisplay:10.37,2013-03-24 16:10:00,
2013-03-24 12:15:00,35.3,20.3,29.90,ENE,58,1.1,4.6,54,0.00,BKN,OVC,0.00,705.0,WeatherDisplay:10.37,2013-03-24 16:15:00,
2013-03-24 12:20:00,35.3,20.3,29.90,ENE,61,2.0,3.5,54,0.00,BKN,OVC,0.00,675.0,WeatherDisplay:10.37,2013-03-24 16:20:00,
2013-03-24 12:25:00,35.6,20.6,29.90,ENE,72,3.1,7.0,54,0.00,BKN,OVC,0.00,680.0,WeatherDisplay:10.37,2013-03-24 16:25:00,
2013-03-24 12:30:00,35.9,20.0,29.90,NNE,30,5.8,9.2,52,0.00,BKN,OVC,0.00,701.0,WeatherDisplay:10.37,2013-03-24 16:30:00,
2013-03-24 12:35:00,36.0,20.1,29.89,ENE,61,2.4,4.0,52,0.00,BKN,OVC,0.00,693.0,WeatherDisplay:10.37,2013-03-24 16:35:00,
2013-03-24 12:40:00,36.2,19.8,29.89,East,84,5.8,8.1,51,0.00,BKN,OVC,0.00,686.0,WeatherDisplay:10.37,2013-03-24 16:40:00,
2013-03-24 12:46:00,36.1,20.6,29.89,NE,55,5.0,12.7,53,0.00,BKN,OVC,0.00,691.0,WeatherDisplay:10.37,2013-03-24 16:46:00,
2013-03-24 12:51:00,35.9,20.4,29.89,ENE,58,1.7,4.0,53,0.00,BKN,OVC,0.00,550.0,WeatherDisplay:10.37,2013-03-24 16:51:00,
2013-03-24 12:56:00,36.3,20.3,29.89,NE,53,5.3,9.2,52,0.00,BKN,OVC,0.00,737.0,WeatherDisplay:10.37,2013-03-24 16:56:00,
2013-03-24 13:01:00,36.8,21.3,29.88,NNE,15,4.2,6.9,53,0.00,BKN,OVC,0.00,710.0,WeatherDisplay:10.37,2013-03-24 17:01:00,
2013-03-24 13:06:00,36.9,20.9,29.88,NNE,15,2.1,5.8,52,0.00,BKN,OVC,0.00,668.0,WeatherDisplay:10.37,2013-03-24 17:06:00,
2013-03-24 13:11:00,36.4,20.4,29.89,East,98,3.9,6.9,52,0.00,BKN,OVC,0.00,687.0,WeatherDisplay:10.37,2013-03-24 17:11:00,
2013-03-24 13:16:00,36.6,20.6,29.88,East,97,3.0,5.0,52,0.00,BKN,OVC,0.00,673.0,WeatherDisplay:10.37,2013-03-24 17:16:00,
2013-03-24 13:21:00,36.9,21.3,29.88,North,351,5.8,11.5,53,0.00,BKN,OVC,0.00,684.0,WeatherDisplay:10.37,2013-03-24 17:21:00,
2013-03-24 13:26:00,36.8,22.1,29.88,NE,48,4.0,9.2,55,0.00,BKN,OVC,0.00,642.0,WeatherDisplay:10.37,2013-03-24 17:26:00,
2013-03-24 13:31:00,36.6,21.5,29.87,North,351,5.0,10.4,54,0.00,BKN,OVC,0.00,622.0,WeatherDisplay:10.37,2013-03-24 17:31:00,
2013-03-24 13:36:00,36.8,21.3,29.87,North,8,7.3,11.0,53,0.00,BKN,OVC,0.00,605.0,WeatherDisplay:10.37,2013-03-24 17:36:00,
2013-03-24 13:41:00,37.0,21.4,29.86,NNE,19,5.5,8.1,53,0.00,BKN,OVC,0.00,599.0,WeatherDisplay:10.37,2013-03-24 17:41:00,
2013-03-24 13:46:00,37.0,21.4,29.86,NE,45,3.7,5.8,53,0.00,BKN,OVC,0.00,554.0,WeatherDisplay:10.37,2013-03-24 17:46:00,
2013-03-24 13:51:00,37.0,20.5,29.85,ENE,59,2.9,9.0,51,0.00,BKN,OVC,0.00,561.0,WeatherDisplay:10.37,2013-03-24 17:51:00,
2013-03-24 13:56:00,36.8,21.3,29.85,NNE,17,5.1,8.1,53,0.00,BKN,OVC,0.00,629.0,WeatherDisplay:10.37,2013-03-24 17:56:00,
2013-03-24 14:01:00,36.8,20.8,29.85,East,81,1.2,10.4,52,0.00,BKN,OVC,0.00,657.0,WeatherDisplay:10.37,2013-03-24 18:01:00,
2013-03-24 14:06:00,37.3,21.7,29.85,ENE,66,9.5,13.0,53,0.00,BKN,OVC,0.00,656.0,WeatherDisplay:10.37,2013-03-24 18:06:00,
2013-03-24 14:11:00,37.3,21.3,29.84,NE,44,5.8,7.0,52,0.00,BKN,OVC,0.00,606.0,WeatherDisplay:10.37,2013-03-24 18:11:00,
2013-03-24 14:16:00,37.3,21.7,29.83,East,100,6.0,9.2,53,0.00,BKN,OVC,0.00,640.0,WeatherDisplay:10.37,2013-03-24 18:16:00,
2013-03-24 14:22:00,37.7,22.1,29.83,ENE,77,3.5,9.0,53,0.00,BKN,OVC,0.00,635.0,WeatherDisplay:10.37,2013-03-24 18:22:00,
2013-03-24 14:27:00,37.7,20.7,29.83,NE,44,6.1,10.0,50,0.00,BKN,OVC,0.00,645.0,WeatherDisplay:10.37,2013-03-24 18:27:00,
2013-03-24 14:32:00,37.5,20.5,29.83,East,89,4.0,10.4,50,0.00,BKN,OVC,0.00,652.0,WeatherDisplay:10.37,2013-03-24 18:32:00,
2013-03-24 14:37:00,37.9,21.8,29.83,East,88,5.7,10.4,52,0.00,BKN,OVC,0.00,619.0,WeatherDisplay:10.37,2013-03-24 18:37:00,
2013-03-24 14:42:00,37.7,21.2,29.83,ENE,64,7.7,10.4,51,0.00,BKN,OVC,0.00,543.0,WeatherDisplay:10.37,2013-03-24 18:42:00,
2013-03-24 14:48:00,38.0,22.4,29.83,NNE,26,6.3,12.0,53,0.00,BKN,OVC,0.00,501.0,WeatherDisplay:10.37,2013-03-24 18:48:00,
2013-03-24 14:53:00,37.7,20.7,29.83,ENE,78,8.4,13.8,50,0.00,BKN,OVC,0.00,554.0,WeatherDisplay:10.37,2013-03-24 18:53:00,
2013-03-24 14:58:00,37.7,22.1,29.82,NNE,24,4.9,8.1,53,0.00,BKN,OVC,0.00,527.0,WeatherDisplay:10.37,2013-03-24 18:58:00,
2013-03-24 15:03:00,37.6,22.0,29.82,NNE,23,9.7,12.0,53,0.00,BKN,OVC,0.00,494.0,WeatherDisplay:10.37,2013-03-24 19:03:00,
2013-03-24 15:08:00,37.5,22.3,29.82,NNE,22,4.7,8.1,54,0.00,BKN,OVC,0.00,385.0,WeatherDisplay:10.37,2013-03-24 19:08:00,
2013-03-24 15:14:00,37.8,22.2,29.82,ENE,75,5.2,9.2,53,0.00,BKN,OVC,0.00,424.0,WeatherDisplay:10.37,2013-03-24 19:14:00,
2013-03-24 15:20:00,37.8,21.7,29.81,ENE,59,3.0,10.0,52,0.00,OVC,OVC,0.00,425.0,WeatherDisplay:10.37,2013-03-24 19:20:00,
2013-03-24 15:25:00,37.8,22.2,29.81,East,92,5.3,11.5,53,0.00,BKN,OVC,0.00,448.0,WeatherDisplay:10.37,2013-03-24 19:25:00,
2013-03-24 15:33:00,37.6,21.5,29.81,NNE,18,6.0,13.0,52,0.00,BKN,OVC,0.00,522.0,WeatherDisplay:10.37,2013-03-24 19:33:00,
2013-03-24 15:38:00,37.7,21.6,29.80,East,90,7.1,11.5,52,0.00,BKN,OVC,0.00,547.0,WeatherDisplay:10.37,2013-03-24 19:38:00,
2013-03-24 15:43:00,37.7,22.1,29.80,East,84,8.5,12.7,53,0.00,BKN,OVC,0.00,499.0,WeatherDisplay:10.37,2013-03-24 19:43:00,
2013-03-24 15:48:00,37.4,22.3,29.80,East,88,6.7,11.5,54,0.00,BKN,OVC,0.00,489.0,WeatherDisplay:10.37,2013-03-24 19:48:00,
2013-03-24 15:53:00,37.7,22.5,29.80,East,88,2.9,6.9,54,0.00,BKN,OVC,0.00,338.0,WeatherDisplay:10.37,2013-03-24 19:53:00,
2013-03-24 15:58:00,38.3,24.0,29.80,ENE,70,3.0,9.2,56,0.00,BKN,OVC,0.00,315.0,WeatherDisplay:10.37,2013-03-24 19:58:00,
2013-03-24 16:03:00,37.8,22.2,29.80,East,84,7.4,11.5,53,0.00,BKN,OVC,0.00,362.0,WeatherDisplay:10.37,2013-03-24 20:03:00,
2013-03-24 16:08:00,37.3,22.6,29.79,East,101,4.9,8.1,55,0.00,BKN,OVC,0.00,350.0,WeatherDisplay:10.37,2013-03-24 20:08:00,
2013-03-24 16:13:00,37.3,22.6,29.79,NE,41,7.3,10.4,55,0.00,BKN,OVC,0.00,332.0,WeatherDisplay:10.37,2013-03-24 20:13:00,
2013-03-24 16:18:00,37.3,22.6,29.79,East,87,8.1,13.8,55,0.00,BKN,OVC,0.00,287.0,WeatherDisplay:10.37,2013-03-24 20:18:00,
2013-03-24 16:23:00,36.9,21.8,29.79,ENE,59,9.1,12.7,54,0.00,BKN,OVC,0.00,287.0,WeatherDisplay:10.37,2013-03-24 20:23:00,
2013-03-24 16:28:00,37.0,22.7,29.79,ENE,62,5.5,8.1,56,0.00,BKN,OVC,0.00,288.0,WeatherDisplay:10.37,2013-03-24 20:28:00,
2013-03-24 16:33:00,37.1,22.8,29.79,NNE,30,5.9,8.1,56,0.00,BKN,OVC,0.00,281.0,WeatherDisplay:10.37,2013-03-24 20:33:00,
2013-03-24 16:38:00,37.1,22.4,29.78,NE,47,7.1,11.5,55,0.00,BKN,OVC,0.00,271.0,WeatherDisplay:10.37,2013-03-24 20:38:00,
2013-03-24 16:43:00,37.0,22.7,29.78,NE,53,4.2,8.1,56,0.00,BKN,OVC,0.00,265.0,WeatherDisplay:10.37,2013-03-24 20:43:00,
2013-03-24 16:48:00,37.0,22.3,29.78,NE,43,2.9,10.4,55,0.00,BKN,OVC,0.00,248.0,WeatherDisplay:10.37,2013-03-24 20:48:00,
2013-03-24 16:53:00,37.2,22.9,29.78,NE,54,7.8,12.7,56,0.00,BKN,OVC,0.00,234.0,WeatherDisplay:10.37,2013-03-24 20:53:00,
2013-03-24 16:58:00,37.0,22.7,29.78,NE,48,4.5,10.4,56,0.00,BKN,OVC,0.00,221.0,WeatherDisplay:10.37,2013-03-24 20:58:00,
2013-03-24 17:03:00,37.0,22.7,29.78,NE,40,10.8,15.0,56,0.00,BKN,OVC,0.00,213.0,WeatherDisplay:10.37,2013-03-24 21:03:00,
2013-03-24 17:08:00,36.8,23.0,29.78,NE,52,6.2,11.5,57,0.00,BKN,OVC,0.00,204.0,WeatherDisplay:10.37,2013-03-24 21:08:00,
2013-03-24 17:13:00,36.9,23.5,29.77,NE,51,4.9,8.0,58,0.00,OVC,,0.00,207.0,WeatherDisplay:10.37,2013-03-24 21:13:00,
2013-03-24 17:18:00,36.9,23.9,29.77,NE,47,5.9,11.5,59,0.00,OVC,,0.00,200.0,WeatherDisplay:10.37,2013-03-24 21:18:00,
2013-03-24 17:23:00,36.8,23.8,29.77,East,86,6.2,9.2,59,0.00,OVC,,0.00,199.0,WeatherDisplay:10.37,2013-03-24 21:23:00,
2013-03-24 17:28:00,36.7,24.1,29.77,ENE,67,4.7,10.4,60,0.00,OVC,,0.00,188.0,WeatherDisplay:10.37,2013-03-24 21:28:00,
2013-03-24 17:33:00,36.5,23.9,29.77,ENE,64,6.2,11.5,60,0.00,OVC,,0.00,176.0,WeatherDisplay:10.37,2013-03-24 21:33:00,
2013-03-24 17:38:00,36.4,23.8,29.77,ENE,78,7.9,9.2,60,0.00,OVC,,0.00,163.0,WeatherDisplay:10.37,2013-03-24 21:38:00,
2013-03-24 17:43:00,36.3,23.7,29.77,NE,49,8.0,12.0,60,0.00,OVC,,0.00,160.0,WeatherDisplay:10.37,2013-03-24 21:43:00,
2013-03-24 17:48:00,36.3,23.7,29.77,NE,56,4.1,10.4,60,0.00,OVC,,0.00,149.0,WeatherDisplay:10.37,2013-03-24 21:48:00,
2013-03-24 17:53:00,36.3,23.7,29.77,NE,55,5.8,11.5,60,0.00,OVC,,0.00,135.0,WeatherDisplay:10.37,2013-03-24 21:53:00,
2013-03-24 17:58:00,36.2,23.6,29.76,ENE,59,10.0,16.0,60,0.00,OVC,,0.00,123.0,WeatherDisplay:10.37,2013-03-24 21:58:00,
2013-03-24 18:03:00,36.1,23.5,29.76,ENE,78,6.5,11.5,60,0.00,OVC,,0.00,114.0,WeatherDisplay:10.37,2013-03-24 22:03:00,
2013-03-24 18:08:00,35.9,23.7,29.76,NE,42,7.3,12.0,61,0.00,OVC,,0.00,105.0,WeatherDisplay:10.37,2013-03-24 22:08:00,
2013-03-24 18:13:00,35.9,23.7,29.76,ENE,72,5.8,10.0,61,0.00,OVC,,0.00,100.0,WeatherDisplay:10.37,2013-03-24 22:13:00,
2013-03-24 18:18:00,35.7,23.2,29.75,NE,56,8.8,12.7,60,0.00,OVC,,0.00,86.0,WeatherDisplay:10.37,2013-03-24 22:18:00,
2013-03-24 18:23:00,35.6,23.5,29.76,ENE,58,5.7,12.0,61,0.00,OVC,,0.00,76.0,WeatherDisplay:10.37,2013-03-24 22:23:00,
2013-03-24 18:28:00,35.5,23.4,29.76,NE,51,7.4,11.5,61,0.00,OVC,,0.00,63.0,WeatherDisplay:10.37,2013-03-24 22:28:00,
2013-03-24 18:33:00,35.4,23.3,29.76,East,80,7.7,13.0,61,0.00,OVC,,0.00,56.0,WeatherDisplay:10.37,2013-03-24 22:33:00,
2013-03-24 18:38:00,35.3,23.2,29.76,NE,50,3.7,10.4,61,0.00,OVC,,0.00,51.0,WeatherDisplay:10.37,2013-03-24 22:38:00,
2013-03-24 18:43:00,35.0,23.3,29.76,NE,54,5.4,9.2,62,0.00,OVC,,0.00,42.0,WeatherDisplay:10.37,2013-03-24 22:43:00,
2013-03-24 18:48:00,34.8,23.1,29.76,NE,40,7.5,11.5,62,0.00,OVC,,0.00,35.0,WeatherDisplay:10.37,2013-03-24 22:48:00,
2013-03-24 18:53:00,34.7,23.0,29.76,NE,55,5.4,11.5,62,0.00,OVC,,0.00,30.0,WeatherDisplay:10.37,2013-03-24 22:53:00,
2013-03-24 18:58:00,34.6,22.9,29.76,NE,52,6.2,13.8,62,0.00,OVC,,0.00,25.0,WeatherDisplay:10.37,2013-03-24 22:58:00,
2013-03-24 19:04:00,34.4,23.1,29.76,ENE,58,6.0,9.2,63,0.00,OVC,,0.00,19.0,WeatherDisplay:10.37,2013-03-24 23:04:00,
2013-03-24 19:09:00,34.3,23.0,29.76,NE,55,6.1,9.2,63,0.00,OVC,,0.00,14.0,WeatherDisplay:10.37,2013-03-24 23:09:00,
2013-03-24 19:14:00,34.1,22.8,29.75,ENE,59,5.8,12.0,63,0.00,OVC,,0.00,11.0,WeatherDisplay:10.37,2013-03-24 23:14:00,
2013-03-24 19:19:00,34.0,23.1,29.75,NE,40,6.8,11.5,64,0.00,OVC,,0.00,7.0,WeatherDisplay:10.37,2013-03-24 23:19:00,
2013-03-24 19:24:00,33.9,22.2,29.75,NE,39,6.3,12.7,62,0.00,OVC,,0.00,0.0,WeatherDisplay:10.37,2013-03-24 23:24:00,
2013-03-24 19:29:00,33.8,22.5,29.75,NE,52,5.2,10.0,63,0.00,OVC,,0.00,0.0,WeatherDisplay:10.37,2013-03-24 23:29:00,
2013-03-24 19:34:00,33.7,22.4,29.76,ENE,72,7.2,10.4,63,0.00,OVC,,0.00,0.0,WeatherDisplay:10.37,2013-03-24 23:34:00,
2013-03-24 19:39:00,33.6,22.0,29.76,ENE,68,8.2,15.0,62,0.00,OVC,,0.00,0.0,WeatherDisplay:10.37,2013-03-24 23:39:00,
2013-03-24 19:44:00,33.5,21.5,29.76,ENE,74,10.4,18.4,61,0.00,OVC,,0.00,0.0,WeatherDisplay:10.37,2013-03-24 23:44:00,
2013-03-24 19:49:00,33.4,21.4,29.76,ENE,78,7.2,10.4,61,0.00,OVC,,0.00,0.0,WeatherDisplay:10.37,2013-03-24 23:49:00,
2013-03-24 19:54:00,33.3,21.7,29.76,East,82,5.0,9.2,62,0.00,OVC,,0.00,0.0,WeatherDisplay:10.37,2013-03-24 23:54:00,
2013-03-24 19:59:00,33.2,21.2,29.76,East,90,6.1,15.0,61,0.00,OVC,,0.00,0.0,WeatherDisplay:10.37,2013-03-24 23:59:00,
2013-03-24 20:04:00,33.1,21.1,29.76,East,90,5.0,8.0,61,0.00,OVC,,0.00,0.0,WeatherDisplay:10.37,2013-03-25 00:04:00,
2013-03-24 20:09:00,33.0,21.0,29.75,ENE,59,3.8,6.9,61,0.00,OVC,,0.00,0.0,WeatherDisplay:10.37,2013-03-25 00:09:00,
2013-03-24 20:14:00,32.8,20.8,29.75,ENE,63,8.0,12.0,61,0.00,OVC,,0.00,0.0,WeatherDisplay:10.37,2013-03-25 00:14:00,
2013-03-24 20:19:00,32.7,20.3,29.75,ENE,77,2.7,5.8,60,0.00,OVC,,0.00,0.0,WeatherDisplay:10.37,2013-03-25 00:19:00,
2013-03-24 20:24:00,32.7,20.7,29.76,ENE,77,4.1,6.0,61,0.00,OVC,,0.00,0.0,WeatherDisplay:10.37,2013-03-25 00:24:00,
2013-03-24 20:29:00,32.5,20.5,29.75,East,80,5.8,10.4,61,0.00,OVC,,0.00,0.0,WeatherDisplay:10.37,2013-03-25 00:29:00,
2013-03-24 20:34:00,32.5,20.5,29.75,ENE,76,3.2,6.9,61,0.00,OVC,,0.00,0.0,WeatherDisplay:10.37,2013-03-25 00:34:00,
2013-03-24 20:39:00,32.5,20.5,29.75,ENE,76,4.3,7.0,61,0.00,OVC,,0.00,0.0,WeatherDisplay:10.37,2013-03-25 00:39:00,
2013-03-24 20:44:00,32.4,20.4,29.75,ENE,72,6.0,10.4,61,0.00,OVC,,0.00,0.0,WeatherDisplay:10.37,2013-03-25 00:44:00,
2013-03-24 20:49:00,32.4,20.8,29.75,ENE,70,6.6,11.5,62,0.00,OVC,,0.00,0.0,WeatherDisplay:10.37,2013-03-25 00:49:00,
2013-03-24 20:54:00,32.3,20.7,29.75,ENE,76,4.5,8.1,62,0.00,OVC,,0.00,0.0,WeatherDisplay:10.37,2013-03-25 00:54:00,
2013-03-24 20:59:00,32.3,20.7,29.75,East,83,7.1,10.4,62,0.00,OVC,,0.00,0.0,WeatherDisplay:10.37,2013-03-25 00:59:00,
2013-03-24 21:04:00,32.3,20.7,29.75,East,81,6.6,10.4,62,0.00,OVC,,0.00,0.0,WeatherDisplay:10.37,2013-03-25 01:04:00,
2013-03-24 21:09:00,32.4,20.8,29.75,East,84,7.2,10.4,62,0.00,OVC,,0.00,0.0,WeatherDisplay:10.37,2013-03-25 01:09:00,
2013-03-24 21:14:00,32.3,20.7,29.74,East,88,7.2,12.0,62,0.00,OVC,,0.00,0.0,WeatherDisplay:10.37,2013-03-25 01:14:00,
2013-03-24 21:19:00,32.3,20.7,29.75,East,89,8.0,15.0,62,0.00,OVC,,0.00,0.0,WeatherDisplay:10.37,2013-03-25 01:19:00,
2013-03-24 21:24:00,32.3,21.1,29.75,East,88,4.2,9.2,63,0.00,OVC,,0.00,0.0,WeatherDisplay:10.37,2013-03-25 01:24:00,
2013-03-24 21:29:00,32.4,20.8,29.75,East,82,8.1,16.1,62,0.00,OVC,,0.00,0.0,WeatherDisplay:10.37,2013-03-25 01:29:00,
2013-03-24 21:34:00,32.3,21.1,29.75,East,90,6.2,15.0,63,0.00,OVC,,0.00,0.0,WeatherDisplay:10.37,2013-03-25 01:34:00,
2013-03-24 21:39:00,32.3,21.1,29.75,ESE,103,9.4,13.8,63,0.00,OVC,,0.00,0.0,WeatherDisplay:10.37,2013-03-25 01:39:00,
2013-03-24 21:44:00,32.3,21.1,29.75,East,82,5.4,11.5,63,0.00,OVC,,0.00,0.0,WeatherDisplay:10.37,2013-03-25 01:44:00,
2013-03-24 21:49:00,32.3,21.1,29.75,East,94,7.9,16.0,63,0.00,OVC,,0.00,0.0,WeatherDisplay:10.37,2013-03-25 01:49:00,
2013-03-24 21:54:00,32.3,21.1,29.74,East,90,6.5,11.5,63,0.00,OVC,,0.00,0.0,WeatherDisplay:10.37,2013-03-25 01:54:00,
2013-03-24 21:59:00,32.3,21.1,29.74,East,82,6.4,13.8,63,0.00,OVC,,0.00,0.0,WeatherDisplay:10.37,2013-03-25 01:59:00,
2013-03-24 22:04:00,32.3,21.1,29.74,East,101,11.0,16.0,63,0.00,OVC,,0.00,0.0,WeatherDisplay:10.37,2013-03-25 02:04:00,
2013-03-24 22:09:00,32.3,21.1,29.74,ENE,70,10.4,16.0,63,0.00,OVC,,0.00,0.0,WeatherDisplay:10.37,2013-03-25 02:09:00,
2013-03-24 22:14:00,32.3,21.1,29.74,East,88,10.6,14.0,63,0.00,OVC,,0.00,0.0,WeatherDisplay:10.37,2013-03-25 02:14:00,
2013-03-24 22:19:00,32.2,21.0,29.73,ENE,68,7.2,12.0,63,0.00,OVC,,0.00,0.0,WeatherDisplay:10.37,2013-03-25 02:19:00,
2013-03-24 22:24:00,32.2,21.0,29.73,ENE,65,8.9,12.7,63,0.00,OVC,,0.00,0.0,WeatherDisplay:10.37,2013-03-25 02:24:00,
2013-03-24 22:29:00,32.1,20.9,29.73,East,85,8.0,15.0,63,0.00,OVC,,0.00,0.0,WeatherDisplay:10.37,2013-03-25 02:29:00,
2013-03-24 22:34:00,32.1,21.3,29.72,SE,128,11.7,17.3,64,0.00,OVC,,0.00,0.0,WeatherDisplay:10.37,2013-03-25 02:34:00,
2013-03-24 22:39:00,32.0,21.2,29.73,ESE,107,10.4,18.4,64,0.00,OVC,,0.00,0.0,WeatherDisplay:10.37,2013-03-25 02:39:00,
2013-03-24 22:44:00,32.0,21.2,29.72,East,86,9.5,17.3,64,0.00,OVC,,0.00,0.0,WeatherDisplay:10.37,2013-03-25 02:44:00,
2013-03-24 22:49:00,32.0,21.2,29.72,East,90,8.5,15.0,64,0.00,OVC,,0.00,0.0,WeatherDisplay:10.37,2013-03-25 02:49:00,
2013-03-24 22:54:00,31.9,21.5,29.72,East,84,7.7,13.0,65,0.00,OVC,,0.00,0.0,WeatherDisplay:10.37,2013-03-25 02:54:00,
2013-03-24 22:59:00,31.8,21.4,29.72,East,89,8.3,12.7,65,0.00,OVC,,0.00,0.0,WeatherDisplay:10.37,2013-03-25 02:59:00,
2013-03-24 23:04:00,31.8,21.4,29.72,ENE,68,9.3,13.0,65,0.00,OVC,,0.00,0.0,WeatherDisplay:10.37,2013-03-25 03:04:00,
2013-03-24 23:09:00,31.7,21.3,29.71,ENE,74,5.8,10.4,65,0.00,OVC,,0.00,0.0,WeatherDisplay:10.37,2013-03-25 03:09:00,
2013-03-24 23:14:00,31.7,21.3,29.71,ESE,107,9.7,14.0,65,0.00,OVC,,0.00,0.0,WeatherDisplay:10.37,2013-03-25 03:14:00,
2013-03-24 23:19:00,31.8,21.4,29.71,ENE,72,11.6,15.0,65,0.00,OVC,,0.00,0.0,WeatherDisplay:10.37,2013-03-25 03:19:00,
2013-03-24 23:24:00,31.8,21.4,29.71,East,82,9.1,13.0,65,0.00,OVC,,0.00,0.0,WeatherDisplay:10.37,2013-03-25 03:24:00,
2013-03-24 23:29:00,31.8,21.7,29.71,East,82,4.9,10.4,66,0.00,OVC,,0.00,0.0,WeatherDisplay:10.37,2013-03-25 03:29:00,
2013-03-24 23:34:00,31.8,21.7,29.71,East,95,6.7,18.4,66,0.00,OVC,,0.00,0.0,WeatherDisplay:10.37,2013-03-25 03:34:00,
2013-03-24 23:39:00,31.8,21.7,29.71,East,86,7.5,17.3,66,0.00,OVC,,0.00,0.0,WeatherDisplay:10.37,2013-03-25 03:39:00,
2013-03-24 23:44:00,31.9,22.2,29.71,ENE,74,8.1,15.0,67,0.00,OVC,,0.00,0.0,WeatherDisplay:10.37,2013-03-25 03:44:00,
2013-03-24 23:49:00,31.9,22.2,29.70,East,93,9.6,15.0,67,0.00,OVC,,0.00,0.0,WeatherDisplay:10.37,2013-03-25 03:49:00,
2013-03-24 23:54:00,32.0,22.3,29.70,East,86,7.1,13.8,67,0.00,OVC,,0.00,0.0,WeatherDisplay:10.37,2013-03-25 03:54:00,
2013-03-24 23:59:00,31.9,22.5,29.70,East,84,9.8,15.0,68,0.00,OVC,,0.00,0.0,WeatherDisplay:10.37,2013-03-25 03:59:00,